createdAt,value
2019-02-04T00:00:48.202Z,0.64
2019-02-04T00:01:48.620Z,0.61
2019-02-04T00:02:50.056Z,0.59
2019-02-04T00:03:51.619Z,0.61
2019-02-04T00:04:52.469Z,0.55
2019-02-04T00:05:52.743Z,0.64
2019-02-04T00:06:54.006Z,0.66
2019-02-04T00:07:54.560Z,0.63
2019-02-04T00:08:55.715Z,0.64
2019-02-04T00:09:56.693Z,0.56
2019-02-04T00:11:00.674Z,0.58
2019-02-04T00:12:01.073Z,0.49
2019-02-04T00:13:01.209Z,0.48
2019-02-04T00:14:02.284Z,0.45
2019-02-04T00:15:02.449Z,0.55
2019-02-04T00:16:03.172Z,0.44
2019-02-04T00:17:03.888Z,0.44
2019-02-04T00:18:04.757Z,0.4
2019-02-04T00:19:05.502Z,0.34
2019-02-04T00:20:06.656Z,0.34
2019-02-04T00:21:07.188Z,0.42
2019-02-04T00:22:07.637Z,0.47
2019-02-04T00:23:10.299Z,0.36
2019-02-04T00:24:10.003Z,0.37
2019-02-04T00:25:11.255Z,0.39
2019-02-04T00:26:11.797Z,0.45
2019-02-04T00:27:12.773Z,0.37
2019-02-04T00:28:13.156Z,0.3
2019-02-04T00:29:13.852Z,0.3
2019-02-04T00:30:15.095Z,0.24
2019-02-04T00:31:15.521Z,0.18
2019-02-04T00:32:18.240Z,0.11
2019-02-04T00:33:17.002Z,0
2019-02-04T00:34:17.528Z,0.05
2019-02-04T00:35:19.233Z,-0.05
2019-02-04T00:36:20.074Z,0.02
2019-02-04T00:37:20.784Z,-0.05
2019-02-04T00:38:21.653Z,-0.06
2019-02-04T00:39:22.374Z,-0.15
2019-02-04T00:40:23.751Z,-0.1
2019-02-04T00:41:23.919Z,-0.18
2019-02-04T00:42:24.125Z,-0.17
2019-02-04T00:43:25.293Z,-0.2
2019-02-04T00:44:26.007Z,-0.15
2019-02-04T00:45:26.444Z,-0.24
2019-02-04T00:46:27.457Z,-0.23
2019-02-04T00:47:27.605Z,-0.26
2019-02-04T00:48:28.752Z,-0.17
2019-02-04T00:49:31.076Z,-0.23
2019-02-04T00:50:30.466Z,-0.27
2019-02-04T00:51:31.884Z,-0.17
2019-02-04T00:52:32.867Z,-0.24
2019-02-04T00:53:34.026Z,-0.24
2019-02-04T00:54:35.070Z,-0.24
2019-02-04T00:55:34.886Z,-0.27
2019-02-04T00:56:35.394Z,-0.21
2019-02-04T00:57:36.652Z,-0.28
2019-02-04T00:58:37.508Z,-0.13
2019-02-04T00:59:38.246Z,-0.15
2019-02-04T01:00:39.406Z,-0.12
2019-02-04T01:01:40.422Z,-0.1
2019-02-04T01:02:40.686Z,-0.23
2019-02-04T01:03:41.391Z,-0.1
2019-02-04T01:04:41.836Z,-0.07
2019-02-04T01:05:43.149Z,-0.02
2019-02-04T01:06:44.500Z,0.01
2019-02-04T01:07:44.817Z,-0.05
2019-02-04T01:08:45.971Z,-0.06
2019-02-04T01:09:46.954Z,0.01
2019-02-04T01:10:47.923Z,0
2019-02-04T01:11:49.614Z,0.06
2019-02-04T01:12:49.756Z,0.05
2019-02-04T01:13:50.464Z,-0.03
2019-02-04T01:14:51.154Z,-0.05
2019-02-04T01:15:53.465Z,-0.12
2019-02-04T01:17:05.851Z,-0.23
2019-02-04T01:18:07.702Z,-0.12
2019-02-04T01:19:07.416Z,-0.1
2019-02-04T01:20:08.396Z,-0.05
2019-02-04T01:21:08.830Z,-0.05
2019-02-04T01:22:09.813Z,0.01
2019-02-04T01:23:10.513Z,0.08
2019-02-04T01:24:10.967Z,0.15
2019-02-04T01:25:11.959Z,0.09
2019-02-04T01:26:12.657Z,0.08
2019-02-04T01:27:12.793Z,-0.02
2019-02-04T01:28:13.387Z,-0.02
2019-02-04T01:29:14.631Z,-0.02
2019-02-04T01:30:15.336Z,0.01
2019-02-04T01:31:15.763Z,0.01
2019-02-04T01:32:16.912Z,0
2019-02-04T01:33:17.602Z,0.09
2019-02-04T01:34:18.577Z,0
2019-02-04T01:35:20.324Z,0.01
2019-02-04T01:36:20.315Z,-0.06
2019-02-04T01:37:20.745Z,0.08
2019-02-04T01:38:21.572Z,0.05
2019-02-04T01:39:22.267Z,-0.02
2019-02-04T01:40:22.973Z,0.05
2019-02-04T01:41:23.208Z,0.01
2019-02-04T01:42:23.357Z,-0.05
2019-02-04T01:43:24.083Z,-0.09
2019-02-04T01:44:25.335Z,0
2019-02-04T01:45:25.502Z,0.05
2019-02-04T01:46:25.704Z,0.05
2019-02-04T01:47:26.509Z,0.05
2019-02-04T01:48:27.659Z,0.02
2019-02-04T01:49:28.354Z,-0.09
2019-02-04T01:50:28.511Z,-0.03
2019-02-04T01:51:30.033Z,-0.05
2019-02-04T01:52:30.986Z,-0.17
2019-02-04T01:53:30.702Z,-0.17
2019-02-04T01:54:31.135Z,-0.21
2019-02-04T01:55:32.283Z,-0.2
2019-02-04T01:56:33.435Z,-0.2
2019-02-04T01:57:34.147Z,-0.15
2019-02-04T01:58:34.552Z,-0.23
2019-02-04T01:59:35.695Z,-0.12
2019-02-04T02:00:36.660Z,-0.09
2019-02-04T02:01:38.506Z,-0.09
2019-02-04T02:02:39.105Z,-0.15
2019-02-04T02:03:39.801Z,-0.15
2019-02-04T02:04:40.499Z,-0.06
2019-02-04T02:05:41.203Z,-0.24
2019-02-04T02:06:41.894Z,-0.23
2019-02-04T02:07:42.589Z,-0.26
2019-02-04T02:08:43.996Z,-0.27
2019-02-04T02:09:44.266Z,-0.24
2019-02-04T02:10:46.088Z,-0.27
2019-02-04T02:11:45.749Z,-0.18
2019-02-04T02:12:46.902Z,-0.15
2019-02-04T02:13:47.590Z,-0.21
2019-02-04T02:14:48.575Z,-0.12
2019-02-04T02:15:48.271Z,-0.12
2019-02-04T02:16:48.972Z,-0.05
2019-02-04T02:17:49.055Z,-0.05
2019-02-04T02:18:49.614Z,0.09
2019-02-04T02:19:49.864Z,0.01
2019-02-04T02:20:50.629Z,0.08
2019-02-04T02:21:51.315Z,0.18
2019-02-04T02:22:52.283Z,0.15
2019-02-04T02:23:52.836Z,0.12
2019-02-04T02:24:53.306Z,0.12
2019-02-04T02:25:54.017Z,0.15
2019-02-04T02:26:54.990Z,0.11
2019-02-04T02:27:56.047Z,0.15
2019-02-04T02:28:56.573Z,0.09
2019-02-04T02:29:57.273Z,0.13
2019-02-04T02:30:58.429Z,0.18
2019-02-04T02:31:59.159Z,0.19
2019-02-04T02:33:00.534Z,0.19
2019-02-04T02:34:01.100Z,0.19
2019-02-04T02:35:02.179Z,0.19
2019-02-04T02:36:02.876Z,0.24
2019-02-04T02:37:05.097Z,0.23
2019-02-04T02:38:04.529Z,0.27
2019-02-04T02:39:04.920Z,0.23
2019-02-04T02:40:05.344Z,0.23
2019-02-04T02:41:07.059Z,0.23
2019-02-04T02:42:07.728Z,0.2
2019-02-04T02:43:07.721Z,0.29
2019-02-04T02:44:09.016Z,0.31
2019-02-04T02:45:10.468Z,0.23
2019-02-04T02:46:10.016Z,0.27
2019-02-04T02:47:11.436Z,0.27
2019-02-04T02:48:12.418Z,0.3
2019-02-04T02:49:13.640Z,0.29
2019-02-04T02:50:14.083Z,0.47
2019-02-04T02:51:15.081Z,0.47
2019-02-04T02:52:16.050Z,0.44
2019-02-04T02:53:16.759Z,0.42
2019-02-04T02:54:18.779Z,0.45
2019-02-04T02:55:19.330Z,0.31
2019-02-04T02:56:19.854Z,0.23
2019-02-04T02:57:20.556Z,0.15
2019-02-04T02:58:21.546Z,0
2019-02-04T02:59:22.291Z,0.01
2019-02-04T03:00:22.992Z,-0.12
2019-02-04T03:01:24.249Z,-0.13
2019-02-04T03:02:24.978Z,-0.28
2019-02-04T03:03:25.528Z,-0.21
2019-02-04T03:04:25.942Z,-0.2
2019-02-04T03:05:26.373Z,-0.27
2019-02-04T03:06:27.534Z,-0.38
2019-02-04T03:07:27.513Z,-0.38
2019-02-04T03:08:27.940Z,-0.38
2019-02-04T03:09:28.668Z,-0.45
2019-02-04T03:10:29.387Z,-0.33
2019-02-04T03:11:31.059Z,-0.28
2019-02-04T03:12:30.867Z,-0.24
2019-02-04T03:13:31.615Z,-0.35
2019-02-04T03:14:31.906Z,-0.33
2019-02-04T03:15:32.159Z,-0.38
2019-02-04T03:16:32.974Z,-0.38
2019-02-04T03:17:33.709Z,-0.42
2019-02-04T03:18:35.403Z,-0.27
2019-02-04T03:19:36.443Z,-0.23
2019-02-04T03:20:39.073Z,-0.26
2019-02-04T03:21:37.813Z,-0.31
2019-02-04T03:22:38.825Z,-0.42
2019-02-04T03:23:39.800Z,-0.33
2019-02-04T03:24:40.796Z,-0.42
2019-02-04T03:25:41.491Z,-0.36
2019-02-04T03:26:42.309Z,-0.36
2019-02-04T03:27:42.733Z,-0.41
2019-02-04T03:28:44.002Z,-0.45
2019-02-04T03:29:44.892Z,-0.49
2019-02-04T03:30:45.981Z,-0.42
2019-02-04T03:31:48.482Z,-0.59
2019-02-04T03:32:48.803Z,-0.53
2019-02-04T03:33:50.161Z,-0.56
2019-02-04T03:34:50.584Z,-0.57
2019-02-04T03:35:51.585Z,-0.59
2019-02-04T03:36:52.006Z,-0.63
2019-02-04T03:37:53.774Z,-0.67
2019-02-04T03:38:54.585Z,-0.67
2019-02-04T03:39:55.274Z,-0.63
2019-02-04T03:40:55.969Z,-0.63
2019-02-04T03:41:56.690Z,-0.66
2019-02-04T03:42:58.538Z,-0.7
2019-02-04T03:43:58.813Z,-0.66
2019-02-04T03:44:59.823Z,-0.57
2019-02-04T03:46:00.815Z,-0.6
2019-02-04T03:47:02.379Z,-0.46
2019-02-04T03:48:15.085Z,-0.53
2019-02-04T03:49:17.389Z,-0.56
2019-02-04T03:50:16.881Z,-0.57
2019-02-04T03:51:17.724Z,-0.53
2019-02-04T03:52:17.692Z,-0.51
2019-02-04T03:53:18.664Z,-0.44
2019-02-04T03:54:19.174Z,-0.54
2019-02-04T03:55:20.161Z,-0.63
2019-02-04T03:56:19.847Z,-0.63
2019-02-04T03:57:20.540Z,-0.67
2019-02-04T03:58:22.806Z,-0.56
2019-02-04T03:59:22.342Z,-0.67
2019-02-04T04:00:23.497Z,-0.67
2019-02-04T04:01:24.262Z,-0.63
2019-02-04T04:02:25.227Z,-0.6
2019-02-04T04:03:25.211Z,-0.63
2019-02-04T04:04:25.634Z,-0.63
2019-02-04T04:05:26.620Z,-0.57
2019-02-04T04:06:27.734Z,-0.6
2019-02-04T04:07:28.715Z,-0.56
2019-02-04T04:08:29.511Z,-0.64
2019-02-04T04:09:30.129Z,-0.63
2019-02-04T04:10:30.847Z,-0.67
2019-02-04T04:11:31.835Z,-0.54
2019-02-04T04:12:33.378Z,-0.56
2019-02-04T04:13:33.377Z,-0.54
2019-02-04T04:14:34.087Z,-0.46
2019-02-04T04:15:35.598Z,-0.54
2019-02-04T04:16:35.514Z,-0.45
2019-02-04T04:17:36.300Z,-0.54
2019-02-04T04:18:36.726Z,-0.6
2019-02-04T04:19:37.011Z,-0.64
2019-02-04T04:20:37.981Z,-0.57
2019-02-04T04:21:38.952Z,-0.54
2019-02-04T04:22:39.376Z,-0.49
2019-02-04T04:23:40.065Z,-0.64
2019-02-04T04:24:42.130Z,-0.54
2019-02-04T04:25:41.475Z,-0.62
2019-02-04T04:26:41.887Z,-0.57
2019-02-04T04:27:42.149Z,-0.67
2019-02-04T04:28:42.678Z,-0.56
2019-02-04T04:29:42.965Z,-0.64
2019-02-04T04:30:43.653Z,-0.54
2019-02-04T04:31:44.356Z,-0.56
2019-02-04T04:32:46.295Z,-0.49
2019-02-04T04:33:46.010Z,-0.51
2019-02-04T04:34:46.166Z,-0.53
2019-02-04T04:35:46.868Z,-0.59
2019-02-04T04:36:47.666Z,-0.57
2019-02-04T04:37:48.922Z,-0.44
2019-02-04T04:38:49.707Z,-0.54
2019-02-04T04:39:50.216Z,-0.53
2019-02-04T04:40:50.397Z,-0.56
2019-02-04T04:41:51.121Z,-0.49
2019-02-04T04:42:51.944Z,-0.48
2019-02-04T04:43:52.217Z,-0.48
2019-02-04T04:44:52.627Z,-0.51
2019-02-04T04:45:53.766Z,-0.49
2019-02-04T04:46:54.904Z,-0.48
2019-02-04T04:47:56.157Z,-0.54
2019-02-04T04:48:56.778Z,-0.45
2019-02-04T04:49:58.687Z,-0.49
2019-02-04T04:50:58.356Z,-0.56
2019-02-04T04:51:58.788Z,-0.48
2019-02-04T04:53:00.198Z,-0.45
2019-02-04T04:54:00.751Z,-0.49
2019-02-04T04:55:02.162Z,-0.35
2019-02-04T04:56:02.167Z,-0.36
2019-02-04T04:57:02.583Z,-0.27
2019-02-04T04:58:03.302Z,-0.35
2019-02-04T04:59:05.152Z,-0.27
2019-02-04T05:00:04.892Z,-0.21
2019-02-04T05:01:05.870Z,-0.1
2019-02-04T05:02:05.852Z,-0.15
2019-02-04T05:03:06.983Z,-0.1
2019-02-04T05:04:08.139Z,-0.1
2019-02-04T05:05:08.859Z,-0.03
2019-02-04T05:06:09.281Z,0.01
2019-02-04T05:07:10.605Z,-0.07
2019-02-04T05:08:10.768Z,-0.09
2019-02-04T05:09:11.189Z,-0.1
2019-02-04T05:10:12.027Z,-0.1
2019-02-04T05:11:13.020Z,0.01
2019-02-04T05:12:13.301Z,-0.07
2019-02-04T05:13:14.460Z,-0.03
2019-02-04T05:14:15.883Z,-0.02
2019-02-04T05:15:16.123Z,0.02
2019-02-04T05:16:18.104Z,-0.09
2019-02-04T05:17:18.150Z,-0.02
2019-02-04T05:18:18.840Z,0
2019-02-04T05:19:19.835Z,-0.05
2019-02-04T05:20:19.942Z,-0.12
2019-02-04T05:21:20.648Z,-0.17
2019-02-04T05:22:21.335Z,-0.1
2019-02-04T05:23:22.021Z,-0.13
2019-02-04T05:24:22.746Z,-0.23
2019-02-04T05:25:24.761Z,-0.1
2019-02-04T05:26:24.241Z,-0.23
2019-02-04T05:27:24.943Z,-0.24
2019-02-04T05:28:25.646Z,-0.06
2019-02-04T05:29:26.641Z,-0.18
2019-02-04T05:30:27.201Z,-0.2
2019-02-04T05:31:27.750Z,-0.17
2019-02-04T05:32:28.443Z,-0.24
2019-02-04T05:33:29.328Z,-0.26
2019-02-04T05:34:30.030Z,-0.26
2019-02-04T05:35:30.745Z,-0.27
2019-02-04T05:36:31.228Z,-0.24
2019-02-04T05:37:31.368Z,-0.21
2019-02-04T05:38:31.782Z,-0.27
2019-02-04T05:39:32.492Z,-0.21
2019-02-04T05:40:33.063Z,-0.24
2019-02-04T05:41:33.760Z,-0.23
2019-02-04T05:42:37.107Z,-0.27
2019-02-04T05:43:36.873Z,-0.27
2019-02-04T05:44:37.293Z,-0.3
2019-02-04T05:45:38.553Z,-0.24
2019-02-04T05:46:38.686Z,-0.23
2019-02-04T05:47:38.957Z,-0.23
2019-02-04T05:48:51.949Z,-0.26
2019-02-04T05:49:52.512Z,-0.27
2019-02-04T05:50:53.242Z,-0.26
2019-02-04T05:51:56.415Z,-0.23
2019-02-04T05:52:58.313Z,-0.27
2019-02-04T05:53:59.284Z,-0.26
2019-02-04T05:55:00.844Z,-0.21
2019-02-04T05:56:00.961Z,-0.28
2019-02-04T05:57:02.218Z,-0.3
2019-02-04T05:58:02.921Z,-0.23
2019-02-04T05:59:03.631Z,-0.26
2019-02-04T06:00:05.050Z,-0.26
2019-02-04T06:01:05.195Z,-0.17
2019-02-04T06:02:09.754Z,-0.23
2019-02-04T06:03:06.735Z,-0.26
2019-02-04T06:04:07.157Z,-0.27
2019-02-04T06:05:07.883Z,-0.21
2019-02-04T06:06:09.153Z,-0.26
2019-02-04T06:07:09.288Z,-0.24
2019-02-04T06:08:10.475Z,-0.24
2019-02-04T06:09:10.630Z,-0.26
2019-02-04T06:10:12.085Z,-0.24
2019-02-04T06:11:11.784Z,-0.24
2019-02-04T06:12:13.324Z,-0.27
2019-02-04T06:13:13.301Z,-0.3
2019-02-04T06:14:13.731Z,-0.26
2019-02-04T06:15:14.773Z,-0.27
2019-02-04T06:16:14.894Z,-0.27
2019-02-04T06:17:15.595Z,-0.26
2019-02-04T06:18:17.023Z,-0.27
2019-02-04T06:19:18.935Z,-0.28
2019-02-04T06:20:18.202Z,-0.2
2019-02-04T06:21:18.451Z,-0.21
2019-02-04T06:22:19.862Z,-0.17
2019-02-04T06:23:20.298Z,-0.07
2019-02-04T06:24:21.547Z,-0.09
2019-02-04T06:25:23.187Z,-0.09
2019-02-04T06:26:22.708Z,-0.13
2019-02-04T06:27:23.853Z,-0.1
2019-02-04T06:28:27.683Z,-0.2
2019-02-04T06:29:28.323Z,-0.15
2019-02-04T06:30:28.392Z,-0.15
2019-02-04T06:31:28.990Z,-0.13
2019-02-04T06:32:29.204Z,-0.07
2019-02-04T06:33:29.900Z,-0.1
2019-02-04T06:34:30.129Z,-0.06
2019-02-04T06:35:30.564Z,0.05
2019-02-04T06:36:31.264Z,0.02
2019-02-04T06:37:33.619Z,0.02
2019-02-04T06:38:33.297Z,0.08
2019-02-04T06:39:33.435Z,0.08
2019-02-04T06:40:33.986Z,0.06
2019-02-04T06:41:35.004Z,0.05
2019-02-04T06:42:35.532Z,0.08
2019-02-04T06:43:35.946Z,0.08
2019-02-04T06:44:37.137Z,0.06
2019-02-04T06:45:39.564Z,-0.02
2019-02-04T06:46:39.101Z,-0.15
2019-02-04T06:47:40.809Z,-0.2
2019-02-04T06:48:41.523Z,-0.28
2019-02-04T06:49:42.508Z,-0.38
2019-02-04T06:50:42.763Z,-0.49
2019-02-04T06:51:43.511Z,-0.49
2019-02-04T06:52:44.286Z,-0.62
2019-02-04T06:53:45.276Z,-0.64
2019-02-04T06:54:47.106Z,-0.66
2019-02-04T06:55:47.840Z,-0.66
2019-02-04T06:56:49.643Z,-0.67
2019-02-04T06:57:50.253Z,-0.64
2019-02-04T06:58:50.532Z,-0.64
2019-02-04T06:59:51.164Z,-0.63
2019-02-04T07:00:51.484Z,-0.67
2019-02-04T07:01:52.839Z,-0.74
2019-02-04T07:02:54.208Z,-0.78
2019-02-04T07:03:54.666Z,-0.74
2019-02-04T07:04:55.627Z,-0.69
2019-02-04T07:05:56.354Z,-0.74
2019-02-04T07:06:56.489Z,-0.66
2019-02-04T07:08:01.002Z,-0.69
2019-02-04T07:08:10.797Z,-0.74
2019-02-04T07:09:10.696Z,-0.54
2019-02-04T07:10:11.187Z,-0.46
2019-02-04T07:11:12.536Z,-0.38
2019-02-04T07:12:14.597Z,-0.23
2019-02-04T07:13:14.139Z,-0.28
2019-02-04T07:14:15.204Z,-0.18
2019-02-04T07:15:16.791Z,-0.24
2019-02-04T07:16:17.550Z,-0.28
2019-02-04T07:17:18.272Z,-0.23
2019-02-04T07:18:18.804Z,-0.3
2019-02-04T07:19:26.126Z,-0.24
2019-02-04T07:19:31.692Z,-0.23
2019-02-04T07:20:32.020Z,-0.06
2019-02-04T07:21:33.290Z,-0.05
2019-02-04T07:22:33.996Z,-0.07
2019-02-04T07:23:34.858Z,-0.06
2019-02-04T07:24:50.249Z,0.19
2019-02-04T07:25:48.731Z,0.12
2019-02-04T07:26:48.754Z,0.19
2019-02-04T07:27:49.490Z,0.16
2019-02-04T07:28:50.537Z,0.23
2019-02-04T07:29:51.341Z,0.12
2019-02-04T07:30:52.320Z,0.12
2019-02-04T07:31:53.241Z,0.15
2019-02-04T07:32:54.255Z,0.15
2019-02-04T07:33:55.034Z,0.18
2019-02-04T07:34:55.495Z,0.19
2019-02-04T07:35:57.031Z,0.19
2019-02-04T07:36:57.744Z,0.18
2019-02-04T07:37:58.058Z,0.18
2019-02-04T07:38:58.767Z,0.08
2019-02-04T07:39:59.473Z,-0.05
2019-02-04T07:41:00.451Z,-0.06
2019-02-04T07:42:01.184Z,-0.07
2019-02-04T07:43:03.360Z,-0.12
2019-02-04T07:44:03.343Z,-0.07
2019-02-04T07:45:04.326Z,-0.07
2019-02-04T07:46:04.449Z,-0.07
2019-02-04T07:47:05.385Z,0
2019-02-04T07:48:05.777Z,-0.13
2019-02-04T07:49:06.271Z,-0.03
2019-02-04T07:50:07.580Z,-0.07
2019-02-04T07:51:08.160Z,0.01
2019-02-04T07:52:08.882Z,-0.05
2019-02-04T07:53:10.033Z,-0.02
2019-02-04T07:54:10.461Z,-0.13
2019-02-04T07:55:11.393Z,0
2019-02-04T07:56:12.205Z,-0.15
2019-02-04T07:57:12.429Z,0
2019-02-04T07:58:13.733Z,-0.02
2019-02-04T07:59:13.906Z,0.05
2019-02-04T08:00:16.158Z,0.11
2019-02-04T08:01:16.494Z,0.18
2019-02-04T08:02:16.528Z,0.19
2019-02-04T08:03:16.981Z,0.31
2019-02-04T08:04:17.573Z,0.31
2019-02-04T08:05:18.309Z,0.42
2019-02-04T08:06:19.166Z,0.4
2019-02-04T08:07:19.312Z,0.58
2019-02-04T08:08:20.352Z,0.63
2019-02-04T08:09:21.350Z,0.81
2019-02-04T08:10:21.685Z,0.84
2019-02-04T08:11:23.054Z,0.89
2019-02-04T08:12:24.057Z,0.94
2019-02-04T08:13:25.043Z,0.95
2019-02-04T08:14:25.566Z,0.96
2019-02-04T08:15:26.548Z,0.94
2019-02-04T08:16:27.664Z,0.96
2019-02-04T08:17:29.235Z,1.02
2019-02-04T08:18:30.407Z,1
2019-02-04T08:19:30.826Z,0.96
2019-02-04T08:20:31.795Z,1.13
2019-02-04T08:21:32.563Z,1.2
2019-02-04T08:22:33.343Z,1.27
2019-02-04T08:23:34.332Z,1.34
2019-02-04T08:24:35.471Z,1.32
2019-02-04T08:25:36.149Z,1.27
2019-02-04T08:26:41.007Z,1.12
2019-02-04T08:26:49.647Z,1.2
2019-02-04T08:27:50.847Z,1.12
2019-02-04T08:28:51.849Z,0.95
2019-02-04T08:29:52.048Z,0.88
2019-02-04T08:30:53.313Z,0.82
2019-02-04T08:31:53.839Z,0.81
2019-02-04T08:32:54.284Z,0.76
2019-02-04T08:33:56.087Z,0.71
2019-02-04T08:34:56.590Z,0.81
2019-02-04T08:35:57.660Z,0.82
2019-02-04T08:36:59.207Z,0.92
2019-02-04T08:37:59.048Z,1.06
2019-02-04T08:38:59.903Z,1.02
2019-02-04T08:40:00.897Z,1.28
2019-02-04T08:41:01.266Z,1.64
2019-02-04T08:42:01.806Z,2.22
2019-02-04T08:43:03.265Z,2.68
2019-02-04T08:44:04.059Z,3.08
2019-02-04T08:45:05.607Z,3.33
2019-02-04T08:46:07.015Z,3.27
2019-02-04T08:47:08.042Z,3.4
2019-02-04T08:48:07.367Z,3.26
2019-02-04T08:49:08.389Z,3.24
2019-02-04T08:50:09.238Z,3.18
2019-02-04T08:51:10.578Z,2.85
2019-02-04T08:52:11.340Z,2.7
2019-02-04T08:53:12.091Z,2.62
2019-02-04T08:54:13.442Z,2.79
2019-02-04T08:55:14.084Z,2.87
2019-02-04T08:56:15.063Z,2.9
2019-02-04T08:57:15.412Z,3.12
2019-02-04T08:58:16.010Z,3.4
2019-02-04T08:59:18.029Z,3.49
2019-02-04T09:00:17.434Z,3.29
2019-02-04T09:01:18.194Z,3.12
2019-02-04T09:02:20.274Z,2.76
2019-02-04T09:03:19.925Z,2.73
2019-02-04T09:04:20.659Z,2.34
2019-02-04T09:05:21.165Z,2.21
2019-02-04T09:06:22.593Z,1.93
2019-02-04T09:07:22.897Z,1.78
2019-02-04T09:08:23.829Z,1.7
2019-02-04T09:09:25.299Z,1.7
2019-02-04T09:10:27.064Z,1.52
2019-02-04T09:11:26.624Z,1.4
2019-02-04T09:12:26.947Z,1.48
2019-02-04T09:13:28.294Z,1.39
2019-02-04T09:14:28.643Z,1.57
2019-02-04T09:15:29.399Z,1.52
2019-02-04T09:16:33.356Z,1.27
2019-02-04T09:16:45.322Z,1.31
2019-02-04T09:16:57.084Z,1.21
2019-02-04T09:17:07.769Z,1.18
2019-02-04T09:17:19.729Z,1.16
2019-02-04T09:18:18.881Z,1.2
2019-02-04T09:19:19.373Z,1.31
2019-02-04T09:20:20.122Z,1.34
2019-02-04T09:21:20.341Z,1.4
2019-02-04T09:22:21.813Z,1.63
2019-02-04T09:23:22.312Z,1.57
2019-02-04T09:24:22.810Z,1.53
2019-02-04T09:25:24.973Z,1.63
2019-02-04T09:26:24.707Z,1.76
2019-02-04T09:27:25.601Z,1.84
2019-02-04T09:28:25.502Z,1.81
2019-02-04T09:29:26.255Z,1.97
2019-02-04T09:30:26.513Z,2.15
2019-02-04T09:31:31.739Z,2.3
2019-02-04T09:31:40.816Z,2.33
2019-02-04T09:32:41.978Z,2.34
2019-02-04T09:33:42.036Z,2.5
2019-02-04T09:34:42.502Z,2.7
2019-02-04T09:35:44.882Z,2.91
2019-02-04T09:36:45.003Z,3.11
2019-02-04T09:37:45.004Z,3.12
2019-02-04T09:38:46.448Z,3.21
2019-02-04T09:39:47.543Z,3.31
2019-02-04T09:40:48.387Z,3.33
2019-02-04T09:41:48.868Z,3.43
2019-02-04T09:42:49.509Z,3.37
2019-02-04T09:43:50.099Z,3.48
2019-02-04T09:44:51.135Z,3.55
2019-02-04T09:45:52.339Z,3.66
2019-02-04T09:46:52.948Z,3.86
2019-02-04T09:47:54.015Z,4
2019-02-04T09:48:54.465Z,4.27
2019-02-04T09:49:55.168Z,4.57
2019-02-04T09:50:56.005Z,4.7
2019-02-04T09:51:57.052Z,4.7
2019-02-04T09:52:59.423Z,4.57
2019-02-04T09:53:59.808Z,4.48
2019-02-04T09:55:00.551Z,4.32
2019-02-04T09:56:01.527Z,4.21
2019-02-04T09:57:02.018Z,3.96
2019-02-04T09:58:03.348Z,3.85
2019-02-04T09:59:03.817Z,3.61
2019-02-04T10:00:04.530Z,3.45
2019-02-04T10:01:05.909Z,3.41
2019-02-04T10:02:11.588Z,3.63
2019-02-04T10:02:18.114Z,3.68
2019-02-04T10:03:20.257Z,3.99
2019-02-04T10:04:21.315Z,4.21
2019-02-04T10:05:22.187Z,4.36
2019-02-04T10:06:23.337Z,4.46
2019-02-04T10:07:24.069Z,4.7
2019-02-04T10:08:27.260Z,4.84
2019-02-04T10:08:40.110Z,4.79
2019-02-04T10:09:37.621Z,4.87
2019-02-04T10:10:38.056Z,4.89
2019-02-04T10:11:38.479Z,4.79
2019-02-04T10:12:38.736Z,4.3
2019-02-04T10:13:40.441Z,4.12
2019-02-04T10:14:41.893Z,3.88
2019-02-04T10:15:42.198Z,3.66
2019-02-04T10:16:42.294Z,3.76
2019-02-04T10:17:42.222Z,3.92
2019-02-04T10:18:44.295Z,4.07
2019-02-04T10:19:44.850Z,4.06
2019-02-04T10:20:46.474Z,4.52
2019-02-04T10:21:46.075Z,4.56
2019-02-04T10:22:49.711Z,4.83
2019-02-04T10:23:49.119Z,5.31
2019-02-04T10:24:49.724Z,5.25
2019-02-04T10:25:50.471Z,5.16
2019-02-04T10:26:51.267Z,4.83
2019-02-04T10:27:52.266Z,4.9
2019-02-04T10:28:52.588Z,5.07
2019-02-04T10:29:53.788Z,5.15
2019-02-04T10:30:53.432Z,5.37
2019-02-04T10:31:55.982Z,5.52
2019-02-04T10:32:55.758Z,5.76
2019-02-04T10:33:56.986Z,6.02
2019-02-04T10:34:56.979Z,6.49
2019-02-04T10:35:57.800Z,6.71
2019-02-04T10:36:59.107Z,6.77
2019-02-04T10:37:59.916Z,6.68
2019-02-04T10:39:00.494Z,6.44
2019-02-04T10:40:01.416Z,6.36
2019-02-04T10:41:02.607Z,6.35
2019-02-04T10:42:03.317Z,6.59
2019-02-04T10:43:03.517Z,6.86
2019-02-04T10:44:04.353Z,7.23
2019-02-04T10:45:05.425Z,7.39
2019-02-04T10:46:06.625Z,7.59
2019-02-04T10:47:06.738Z,7.69
2019-02-04T10:48:08.456Z,7.69
2019-02-04T10:49:10.391Z,7.83
2019-02-04T10:50:10.261Z,7.88
2019-02-04T10:51:10.801Z,7.88
2019-02-04T10:52:11.365Z,8.06
2019-02-04T10:53:12.289Z,8.42
2019-02-04T10:54:12.329Z,8.38
2019-02-04T10:55:12.857Z,8.71
2019-02-04T10:56:17.647Z,8.78
2019-02-04T10:57:15.178Z,8.78
2019-02-04T10:58:17.997Z,8.68
2019-02-04T10:59:17.946Z,8.87
2019-02-04T11:00:18.860Z,8.53
2019-02-04T11:01:19.427Z,8.52
2019-02-04T11:02:20.138Z,8.54
2019-02-04T11:03:22.497Z,8.49
2019-02-04T11:04:23.476Z,9.02
2019-02-04T11:05:23.773Z,9.05
2019-02-04T11:06:27.174Z,8.97
2019-02-04T11:07:28.724Z,8.81
2019-02-04T11:08:29.164Z,8.81
2019-02-04T11:09:30.141Z,8.97
2019-02-04T11:10:31.129Z,8.63
2019-02-04T11:11:31.759Z,8.74
2019-02-04T11:12:33.050Z,8.18
2019-02-04T11:13:34.454Z,8.09
2019-02-04T11:14:34.391Z,8.17
2019-02-04T11:15:35.152Z,8.17
2019-02-04T11:16:36.291Z,7.87
2019-02-04T11:17:39.311Z,8.06
2019-02-04T11:18:38.556Z,7.9
2019-02-04T11:19:38.487Z,7.83
2019-02-04T11:20:39.526Z,8.02
2019-02-04T11:21:40.212Z,7.85
2019-02-04T11:22:41.187Z,7.91
2019-02-04T11:23:41.434Z,7.7
2019-02-04T11:24:46.555Z,7.83
2019-02-04T11:24:56.659Z,7.83
2019-02-04T11:25:08.959Z,7.98
2019-02-04T11:25:21.432Z,8.11
2019-02-04T11:25:31.742Z,7.75
2019-02-04T11:25:41.686Z,7.77
2019-02-04T11:26:43.252Z,7.72
2019-02-04T11:27:47.324Z,7.72
2019-02-04T11:27:56.854Z,7.75
2019-02-04T11:29:00.247Z,7.72
2019-02-04T11:29:07.675Z,7.69
2019-02-04T11:30:08.554Z,7.69
2019-02-04T11:31:10.009Z,7.61
2019-02-04T11:32:10.522Z,7.51
2019-02-04T11:33:12.235Z,7.37
2019-02-04T11:34:12.870Z,7.51
2019-02-04T11:35:13.504Z,7.53
2019-02-04T11:36:14.091Z,7.62
2019-02-04T11:37:17.354Z,7.55
2019-02-04T11:37:30.596Z,7.53
2019-02-04T11:37:40.501Z,7.72
2019-02-04T11:38:42.090Z,7.43
2019-02-04T11:39:42.589Z,7.67
2019-02-04T11:40:47.602Z,7.39
2019-02-04T11:41:48.415Z,7.21
2019-02-04T11:42:00.320Z,7.04
2019-02-04T11:42:10.422Z,7.19
2019-02-04T11:43:11.033Z,7.03
2019-02-04T11:44:11.879Z,6.72
2019-02-04T11:45:12.120Z,6.68
2019-02-04T11:46:12.514Z,6.68
2019-02-04T11:47:12.882Z,6.82
2019-02-04T11:48:14.152Z,6.67
2019-02-04T11:49:14.695Z,6.7
2019-02-04T11:50:15.990Z,6.6
2019-02-04T11:51:16.427Z,6.64
2019-02-04T11:52:19.945Z,6.6
2019-02-04T11:52:30.495Z,6.59
2019-02-04T11:52:43.120Z,6.6
2019-02-04T11:53:35.357Z,6.47
2019-02-04T11:53:42.772Z,6.53
2019-02-04T11:54:42.162Z,6.52
2019-02-04T11:55:43.001Z,6.43
2019-02-04T11:56:46.389Z,6.49
2019-02-04T11:56:56.706Z,6.46
2019-02-04T11:57:57.457Z,6.47
2019-02-04T11:59:00.165Z,6.36
2019-02-04T11:59:09.965Z,6.31
2019-02-04T12:00:12.585Z,6.39
2019-02-04T12:01:12.269Z,6.53
2019-02-04T12:02:13.881Z,6.54
2019-02-04T12:03:14.051Z,6.72
2019-02-04T12:04:14.803Z,6.65
2019-02-04T12:05:16.571Z,6.72
2019-02-04T12:06:20.209Z,6.87
2019-02-04T12:07:19.407Z,6.67
2019-02-04T12:08:20.157Z,6.5
2019-02-04T12:09:21.485Z,6.46
2019-02-04T12:10:21.485Z,6.39
2019-02-04T12:11:22.558Z,6.46
2019-02-04T12:12:22.304Z,6.43
2019-02-04T12:13:23.491Z,6.41
2019-02-04T12:14:24.223Z,6.26
2019-02-04T12:15:25.647Z,6.13
2019-02-04T12:16:25.721Z,6.22
2019-02-04T12:17:27.247Z,6.2
2019-02-04T12:18:28.019Z,6.2
2019-02-04T12:19:28.988Z,6.2
2019-02-04T12:20:29.701Z,6.28
2019-02-04T12:21:30.278Z,6.12
2019-02-04T12:22:30.887Z,5.94
2019-02-04T12:23:30.943Z,6.12
2019-02-04T12:24:32.220Z,6.17
2019-02-04T12:25:34.105Z,6.28
2019-02-04T12:26:36.214Z,6.41
2019-02-04T12:27:36.302Z,6.32
2019-02-04T12:28:36.061Z,6.36
2019-02-04T12:29:36.538Z,6.49
2019-02-04T12:30:37.665Z,6.43
2019-02-04T12:31:37.414Z,6.65
2019-02-04T12:32:38.430Z,6.74
2019-02-04T12:33:39.304Z,6.71
2019-02-04T12:34:42.217Z,6.47
2019-02-04T12:35:41.458Z,6.7
2019-02-04T12:36:42.389Z,6.6
2019-02-04T12:37:43.191Z,6.5
2019-02-04T12:38:47.937Z,6.44
2019-02-04T12:39:48.963Z,6.46
2019-02-04T12:39:59.441Z,6.43
2019-02-04T12:41:01.082Z,6.31
2019-02-04T12:41:10.813Z,6.35
2019-02-04T12:42:11.280Z,6.44
2019-02-04T12:43:15.182Z,6.65
2019-02-04T12:43:24.513Z,6.7
2019-02-04T12:44:25.406Z,6.78
2019-02-04T12:45:26.722Z,6.87
2019-02-04T12:46:27.170Z,6.92
2019-02-04T12:47:27.650Z,6.77
2019-02-04T12:48:29.154Z,6.83
2019-02-04T12:49:29.613Z,6.93
2019-02-04T12:50:29.897Z,7.1
2019-02-04T12:51:34.799Z,7.14
2019-02-04T12:52:36.605Z,7.07
2019-02-04T12:53:37.948Z,7.01
2019-02-04T12:54:38.064Z,6.82
2019-02-04T12:55:39.049Z,6.82
2019-02-04T12:56:39.478Z,7.01
2019-02-04T12:57:41.035Z,6.71
2019-02-04T12:58:41.731Z,6.7